createdAt,value
2023-03-16T00:06:52.277Z,80.12
2023-03-16T00:16:53.692Z,80.61
2023-03-16T00:26:55.211Z,79.73
2023-03-16T00:36:56.745Z,79.85
2023-03-16T00:46:58.229Z,78.34
2023-03-16T00:57:00.360Z,78.64
2023-03-16T01:07:03.754Z,78.67
2023-03-16T01:17:08.590Z,78.71
2023-03-16T01:27:10.133Z,78.87
2023-03-16T01:37:11.606Z,78.95
2023-03-16T01:47:14.521Z,78.70
2023-03-16T01:57:22.269Z,77.87
2023-03-16T02:07:25.508Z,77.85
2023-03-16T02:17:29.473Z,78.06
2023-03-16T02:27:30.817Z,77.32
2023-03-16T02:37:33.807Z,77.76
2023-03-16T02:47:43.133Z,78.30
2023-03-16T02:57:44.538Z,78.54
2023-03-16T03:07:45.924Z,78.18
2023-03-16T03:17:47.473Z,78.95
2023-03-16T03:27:51.033Z,78.25
2023-03-16T03:37:52.608Z,78.29
2023-03-16T03:47:56.012Z,78.15
2023-03-16T03:57:57.423Z,78.27
2023-03-16T04:07:58.920Z,78.93
2023-03-16T04:18:00.463Z,77.92
2023-03-16T04:28:02.004Z,78.50
2023-03-16T04:38:03.912Z,78.69
2023-03-16T04:48:05.723Z,78.62
2023-03-16T04:58:07.148Z,78.65
2023-03-16T05:08:08.834Z,77.86
2023-03-16T05:18:10.386Z,78.13
2023-03-16T05:28:12.608Z,78.02
2023-03-16T05:38:15.682Z,78.25
2023-03-16T05:48:17.073Z,78.13
2023-03-16T05:58:18.545Z,79.09
2023-03-16T06:08:20.142Z,79.55
2023-03-16T06:18:21.513Z,79.52
2023-03-16T06:28:23.345Z,79.66
2023-03-16T06:38:24.887Z,79.29
2023-03-16T06:48:26.283Z,79.63
2023-03-16T06:58:27.738Z,78.41
2023-03-16T07:08:29.275Z,77.56
2023-03-16T07:18:31.663Z,76.60
2023-03-16T07:28:33.078Z,75.70
2023-03-16T07:38:34.787Z,74.49
2023-03-16T07:48:37.433Z,75.12
2023-03-16T07:58:38.794Z,74.59
2023-03-16T08:08:40.322Z,74.10
2023-03-16T08:18:42.368Z,73.36
2023-03-16T08:28:47.624Z,73.59
2023-03-16T08:39:05.544Z,73.35
2023-03-16T08:49:08.794Z,73.75
2023-03-16T08:59:19.948Z,74.04
2023-03-16T09:09:31.022Z,73.44
2023-03-16T09:19:49.979Z,74.83
2023-03-16T09:29:55.995Z,74.51
2023-03-16T09:40:06.820Z,75.22
2023-03-16T09:50:47.665Z,75.26
2023-03-16T10:00:52.819Z,74.57
2023-03-16T10:11:23.776Z,73.53
2023-03-16T10:21:25.215Z,72.21
2023-03-16T10:31:28.367Z,73.35
2023-03-16T10:41:38.759Z,70.45
2023-03-16T10:51:40.268Z,70.42
2023-03-16T11:01:45.158Z,70.25
2023-03-16T11:11:49.312Z,70.46
2023-03-16T11:21:58.973Z,67.53
2023-03-16T11:32:05.832Z,66.51
2023-03-16T11:42:22.523Z,65.10
2023-03-16T11:52:42.640Z,65.27
2023-03-16T12:02:50.156Z,63.25
2023-03-16T12:13:00.443Z,61.77
2023-03-16T12:23:11.745Z,61.67
2023-03-16T12:33:34.517Z,60.01
2023-03-16T12:43:50.984Z,60.30
2023-03-16T12:53:53.314Z,59.55
2023-03-16T13:04:09.122Z,58.46
2023-03-16T13:14:17.003Z,59.76
2023-03-16T13:24:18.427Z,60.84
2023-03-16T13:34:27.713Z,61.57
2023-03-16T13:44:30.211Z,59.27
2023-03-16T13:54:31.888Z,59.93
2023-03-16T14:04:33.983Z,58.21
2023-03-16T14:14:41.158Z,59.83
2023-03-16T14:24:44.234Z,59.57
2023-03-16T14:34:50.126Z,58.80
2023-03-16T14:44:51.700Z,57.57
2023-03-16T14:54:55.217Z,58.33
2023-03-16T15:04:59.223Z,56.38
2023-03-16T15:15:16.509Z,56.27
2023-03-16T15:25:41.510Z,56.65
2023-03-16T15:35:43.855Z,55.12
2023-03-16T15:45:47.122Z,54.73
2023-03-16T15:55:54.120Z,54.95
2023-03-16T16:05:55.580Z,55.64
2023-03-16T16:15:57.704Z,60.11
2023-03-16T16:26:02.788Z,56.06
2023-03-16T16:36:11.064Z,57.84
2023-03-16T16:46:18.534Z,56.14
2023-03-16T16:56:27.704Z,57.51
2023-03-16T17:06:30.420Z,57.74
2023-03-16T17:16:35.388Z,58.19
2023-03-16T17:26:41.908Z,59.34
2023-03-16T17:36:43.894Z,59.56
2023-03-16T17:46:46.290Z,60.72
2023-03-16T17:56:50.593Z,61.09
2023-03-16T18:06:52.276Z,61.81
2023-03-16T18:16:54.621Z,63.20
2023-03-16T18:26:56.475Z,62.27
2023-03-16T18:37:00.674Z,63.25
2023-03-16T18:47:03.543Z,63.34
2023-03-16T18:57:16.339Z,63.38
2023-03-16T19:07:28.702Z,63.90
2023-03-16T19:17:30.294Z,63.90
2023-03-16T19:27:38.440Z,64.04
2023-03-16T19:37:40.303Z,64.65
2023-03-16T19:47:41.796Z,64.02
2023-03-16T19:57:44.513Z,63.90
2023-03-16T20:07:46.799Z,64.04
2023-03-16T20:17:49.965Z,64.78
2023-03-16T20:27:56.275Z,64.74
2023-03-16T20:37:57.853Z,65.22
2023-03-16T20:47:59.445Z,65.24
2023-03-16T20:58:01.399Z,65.00
2023-03-16T21:08:02.779Z,65.12
2023-03-16T21:18:07.403Z,65.53
2023-03-16T21:28:12.566Z,65.28
2023-03-16T21:38:16.925Z,65.56
2023-03-16T21:48:29.971Z,64.73
2023-03-16T21:58:31.410Z,65.22
2023-03-16T22:08:34.291Z,65.20
2023-03-16T22:18:37.013Z,64.87
2023-03-16T22:28:38.606Z,65.23
2023-03-16T22:38:41.943Z,64.08
2023-03-16T22:48:43.432Z,65.83
2023-03-16T22:58:50.446Z,65.83
2023-03-16T23:08:54.255Z,64.66
2023-03-16T23:18:56.286Z,64.26
2023-03-16T23:28:57.958Z,64.97
2023-03-16T23:38:59.455Z,63.28
2023-03-16T23:49:05.133Z,64.32
2023-03-16T23:59:06.729Z,64.52
